Terminal Aerodrome Forecast
Issued by NWS

Home | Current Version | Previous Version | Text Only | Print | Product List | Glossary On
Versions: 1 2 3 4 5 6 7 8 9 10 11 12 13 14 15 16 17 18 19 20 21 22 23 24 25 26 27
000
FTUS43 KGLD 012322
TAFMCK
TAF
KMCK 012322Z 0200/0224 VRB04KT P6SM SCT150
     FM021000 VRB04KT 6SM BR VCTS BKN100CB
     FM021300 05010KT 6SM -TSRA BR SCT035 OVC080CB
     FM021700 02010KT P6SM BKN150
     FM022000 34009KT P6SM VCTS BKN100CB=

USA.gov is the U.S. government's official web portal to all federal, state and local government web resources and services.